CPX404 Details

Departure: Nashville International Airport (KBNA)
Arrival: Louis Armstrong New Orleans International Airport (KMSY) at N/A
Route: LBY MEI IGB HRTUN CHSNE2
Notes:


Current Weather Information
KBNA 230853Z 29004KT 10SM CLR 08/03 A3013 RMK AO2 SLP200 T00780028 51008
KMSY 230853Z 00000KT 10SM FEW250 13/08 A3014 RMK AO2 SLP209 T01280078 58003